createdAt,value
2023-01-04T00:00:14.927Z,5.27
2023-01-04T00:02:44.849Z,5.30
2023-01-04T00:05:12.677Z,5.30
2023-01-04T00:07:40.329Z,5.33
2023-01-04T00:10:08.876Z,5.26
2023-01-04T00:12:37.955Z,5.29
2023-01-04T00:15:06.448Z,5.22
2023-01-04T00:17:35.174Z,5.22
2023-01-04T00:20:02.883Z,5.25
2023-01-04T00:22:37.617Z,5.30
2023-01-04T00:25:06.005Z,5.26
2023-01-04T00:27:33.537Z,5.29
2023-01-04T00:30:02.490Z,5.40
2023-01-04T00:32:30.050Z,5.35
2023-01-04T00:34:57.650Z,5.41
2023-01-04T00:37:25.239Z,5.39
2023-01-04T00:39:52.917Z,5.38
2023-01-04T00:42:20.570Z,5.36
2023-01-04T00:44:48.368Z,5.41
2023-01-04T00:47:18.659Z,5.51
2023-01-04T00:49:46.253Z,5.64
2023-01-04T00:52:13.918Z,5.62
2023-01-04T00:54:41.608Z,5.72
2023-01-04T00:57:09.154Z,5.80
2023-01-04T00:59:36.976Z,5.87
2023-01-04T01:02:04.845Z,5.83
2023-01-04T01:04:36.098Z,5.88
2023-01-04T01:07:03.731Z,5.96
2023-01-04T01:09:31.469Z,5.97
2023-01-04T01:11:58.982Z,5.92
2023-01-04T01:14:28.248Z,5.94
2023-01-04T01:16:58.209Z,5.86
2023-01-04T01:19:27.815Z,5.89
2023-01-04T01:21:57.748Z,5.86
2023-01-04T01:24:26.342Z,5.81
2023-01-04T01:26:54.662Z,5.80
2023-01-04T01:29:22.232Z,5.84
2023-01-04T01:31:49.927Z,5.77
2023-01-04T01:34:19.159Z,5.75
2023-01-04T01:36:48.417Z,5.71
2023-01-04T01:39:17.310Z,5.70
2023-01-04T01:41:47.481Z,5.76
2023-01-04T01:44:52.497Z,5.73
2023-01-04T01:47:23.399Z,5.83
2023-01-04T01:49:56.091Z,5.87
2023-01-04T01:52:27.287Z,5.84
2023-01-04T01:54:59.573Z,5.80
2023-01-04T01:57:31.648Z,5.94
2023-01-04T02:00:03.780Z,6.00
2023-01-04T02:02:33.202Z,6.10
2023-01-04T02:05:03.141Z,6.15
2023-01-04T02:07:31.356Z,6.27
2023-01-04T02:10:03.323Z,6.29
2023-01-04T02:12:30.978Z,6.32
2023-01-04T02:15:00.350Z,6.36
2023-01-04T02:17:38.153Z,6.37
2023-01-04T02:20:32.403Z,6.45
2023-01-04T02:23:38.649Z,6.48
2023-01-04T02:26:46.048Z,6.50
2023-01-04T02:29:35.568Z,6.50
2023-01-04T02:32:13.627Z,6.46
2023-01-04T02:34:56.463Z,6.37
2023-01-04T02:37:37.837Z,6.36
2023-01-04T02:40:16.073Z,6.36
2023-01-04T02:43:12.185Z,6.34
2023-01-04T02:45:49.954Z,6.37
2023-01-04T02:48:37.043Z,6.37
2023-01-04T02:51:04.860Z,6.44
2023-01-04T02:53:38.182Z,6.48
2023-01-04T02:56:15.850Z,6.50
2023-01-04T02:59:04.286Z,6.45
2023-01-04T03:01:59.358Z,6.51
2023-01-04T03:05:00.249Z,6.57
2023-01-04T03:07:38.217Z,6.61
2023-01-04T03:10:11.501Z,6.60
2023-01-04T03:12:43.936Z,6.60
2023-01-04T03:15:17.070Z,6.61
2023-01-04T03:17:51.010Z,6.56
2023-01-04T03:20:25.096Z,6.44
2023-01-04T03:23:14.066Z,6.48
2023-01-04T03:26:02.388Z,6.48
2023-01-04T03:28:53.115Z,6.48
2023-01-04T03:31:43.457Z,6.67
2023-01-04T03:34:29.618Z,6.63
2023-01-04T03:37:06.826Z,6.56
2023-01-04T03:40:03.109Z,6.64
2023-01-04T03:42:56.285Z,6.70
2023-01-04T03:45:44.557Z,6.65
2023-01-04T03:48:34.526Z,6.78
2023-01-04T03:51:10.703Z,6.81
2023-01-04T03:53:47.888Z,6.67
2023-01-04T03:56:19.039Z,6.77
2023-01-04T03:58:49.973Z,6.80
2023-01-04T04:01:20.282Z,6.79
2023-01-04T04:04:05.607Z,6.78
2023-01-04T04:06:50.756Z,6.70
2023-01-04T04:09:19.890Z,6.80
2023-01-04T04:11:49.751Z,6.66
2023-01-04T04:14:17.312Z,6.65
2023-01-04T04:16:44.906Z,6.55
2023-01-04T04:19:13.891Z,6.50
2023-01-04T04:21:41.957Z,6.64
2023-01-04T04:24:17.624Z,6.64
2023-01-04T04:26:46.770Z,6.72
2023-01-04T04:29:14.324Z,6.67
2023-01-04T04:31:41.999Z,6.72
2023-01-04T04:34:10.602Z,6.72
2023-01-04T04:36:38.462Z,6.81
2023-01-04T04:39:05.995Z,6.74
2023-01-04T04:41:38.437Z,6.70
2023-01-04T04:44:13.117Z,6.71
2023-01-04T04:46:41.139Z,6.63
2023-01-04T04:49:09.953Z,6.70
2023-01-04T04:51:38.671Z,6.66
2023-01-04T04:54:08.557Z,6.62
2023-01-04T04:56:37.792Z,6.55
2023-01-04T04:59:06.773Z,6.44
2023-01-04T05:01:41.364Z,6.48
2023-01-04T05:04:09.139Z,6.45
2023-01-04T05:06:36.745Z,6.60
2023-01-04T05:09:04.513Z,6.57
2023-01-04T05:11:50.065Z,6.54
2023-01-04T05:14:17.793Z,6.58
2023-01-04T05:16:46.820Z,6.64
2023-01-04T05:19:16.629Z,6.60
2023-01-04T05:21:45.200Z,6.47
2023-01-04T05:24:15.933Z,6.47
2023-01-04T05:26:43.640Z,6.58
2023-01-04T05:29:31.313Z,6.53
2023-01-04T05:31:59.327Z,6.47
2023-01-04T05:34:27.013Z,6.47
2023-01-04T05:36:54.724Z,6.55
2023-01-04T05:39:22.488Z,6.54
2023-01-04T05:42:08.242Z,6.42
2023-01-04T05:44:35.995Z,6.49
2023-01-04T05:47:09.572Z,6.45
2023-01-04T05:49:40.825Z,6.54
2023-01-04T05:52:08.369Z,6.55
2023-01-04T05:54:36.009Z,6.50
2023-01-04T05:57:03.580Z,6.56
2023-01-04T05:59:34.478Z,6.56
2023-01-04T06:02:19.354Z,6.57
2023-01-04T06:04:51.522Z,6.45
2023-01-04T06:07:24.915Z,6.59
2023-01-04T06:09:52.766Z,6.54
2023-01-04T06:12:20.959Z,6.52
2023-01-04T06:14:48.615Z,6.56
2023-01-04T06:17:17.944Z,6.44
2023-01-04T06:19:47.685Z,6.51
2023-01-04T06:22:15.713Z,6.61
2023-01-04T06:24:47.623Z,6.60
2023-01-04T06:27:16.262Z,6.72
2023-01-04T06:29:43.861Z,6.65
2023-01-04T06:32:12.157Z,6.57
2023-01-04T06:34:42.438Z,6.57
2023-01-04T06:37:10.705Z,6.54
2023-01-04T06:39:38.539Z,6.65
2023-01-04T06:42:29.037Z,6.64
2023-01-04T06:44:56.654Z,6.64
2023-01-04T06:47:24.638Z,6.59
2023-01-04T06:49:56.102Z,6.48
2023-01-04T06:52:26.743Z,6.49
2023-01-04T06:54:56.147Z,6.53
2023-01-04T06:57:24.042Z,6.49
2023-01-04T06:59:51.656Z,6.52
2023-01-04T07:02:19.609Z,6.48
2023-01-04T07:04:47.358Z,6.48
2023-01-04T07:07:17.539Z,6.48
2023-01-04T07:09:45.132Z,6.52
2023-01-04T07:12:13.035Z,6.55
2023-01-04T07:14:40.670Z,6.46
2023-01-04T07:17:08.226Z,6.55
2023-01-04T07:19:37.277Z,6.57
2023-01-04T07:22:04.805Z,6.61
2023-01-04T07:24:33.809Z,6.61
2023-01-04T07:27:03.652Z,6.67
2023-01-04T07:29:31.273Z,6.66
2023-01-04T07:31:59.228Z,6.64
2023-01-04T07:34:31.263Z,6.71
2023-01-04T07:37:02.692Z,6.67
2023-01-04T07:39:30.560Z,6.86
2023-01-04T07:41:59.745Z,7.00
2023-01-04T07:44:28.200Z,6.94
2023-01-04T07:46:56.198Z,7.01
2023-01-04T07:49:24.281Z,7.06
2023-01-04T07:51:52.274Z,7.11
2023-01-04T07:54:20.793Z,7.14
2023-01-04T07:56:49.368Z,7.14
2023-01-04T07:59:21.177Z,7.19
2023-01-04T08:01:58.572Z,7.22
2023-01-04T08:04:32.766Z,7.18
2023-01-04T08:07:02.824Z,7.19
2023-01-04T08:09:30.584Z,7.15
2023-01-04T08:12:17.666Z,7.16
2023-01-04T08:15:30.075Z,7.20
2023-01-04T08:21:07.180Z,7.14
2023-01-04T08:23:54.929Z,7.23
2023-01-04T08:26:57.766Z,7.20
2023-01-04T08:32:40.925Z,7.31
2023-01-04T08:35:15.368Z,7.25
2023-01-04T08:38:20.128Z,7.35
2023-01-04T08:41:01.726Z,7.50
2023-01-04T08:43:35.853Z,7.49
2023-01-04T08:46:08.850Z,7.35
2023-01-04T08:48:39.548Z,7.33
2023-01-04T08:51:09.504Z,7.42
2023-01-04T08:53:45.668Z,7.43
2023-01-04T08:56:14.022Z,7.36
2023-01-04T08:58:47.103Z,7.40
2023-01-04T09:01:16.932Z,7.39
2023-01-04T09:03:46.645Z,7.53
2023-01-04T09:06:16.126Z,7.52
2023-01-04T09:08:45.245Z,7.53
2023-01-04T09:11:14.575Z,7.61
2023-01-04T09:13:43.980Z,7.60
2023-01-04T09:16:13.763Z,7.55
2023-01-04T09:18:42.069Z,7.56
2023-01-04T09:21:13.267Z,7.66
2023-01-04T09:23:43.181Z,7.81
2023-01-04T09:26:13.979Z,7.78
2023-01-04T09:28:44.271Z,7.80
2023-01-04T09:31:18.886Z,7.79
2023-01-04T09:36:44.411Z,7.87
2023-01-04T09:39:20.761Z,7.78
2023-01-04T09:41:56.466Z,7.85
2023-01-04T09:45:11.913Z,7.86
2023-01-04T09:47:31.173Z,7.91
2023-01-04T09:50:04.512Z,7.96
2023-01-04T09:52:46.393Z,7.92
2023-01-04T09:55:37.626Z,7.95
2023-01-04T09:58:26.854Z,8.03
2023-01-04T10:01:02.156Z,8.09
2023-01-04T10:03:33.364Z,8.20
2023-01-04T10:06:04.074Z,8.21
2023-01-04T10:08:36.515Z,8.26
2023-01-04T10:11:20.341Z,8.27
2023-01-04T10:14:12.807Z,8.31
2023-01-04T10:17:12.875Z,8.24
2023-01-04T10:23:13.929Z,8.32
2023-01-04T10:25:58.155Z,8.27
2023-01-04T10:28:40.354Z,8.34
2023-01-04T10:31:39.287Z,8.38
2023-01-04T10:34:20.263Z,8.41
2023-01-04T10:36:49.499Z,8.49
2023-01-04T10:39:19.441Z,8.51
2023-01-04T10:41:56.879Z,8.49
2023-01-04T10:44:37.291Z,8.56
2023-01-04T10:47:11.284Z,8.59
2023-01-04T10:49:44.634Z,8.73
2023-01-04T10:52:21.246Z,8.73
2023-01-04T10:54:53.312Z,8.67
2023-01-04T10:57:29.839Z,8.62
2023-01-04T11:00:04.291Z,8.75
2023-01-04T11:02:42.153Z,8.63
2023-01-04T11:05:21.624Z,8.60
2023-01-04T11:07:54.730Z,8.79
2023-01-04T11:10:26.398Z,8.76
2023-01-04T11:12:57.714Z,8.79
2023-01-04T11:15:26.573Z,8.85
2023-01-04T11:17:54.963Z,8.64
2023-01-04T11:20:26.827Z,8.59
2023-01-04T11:23:02.360Z,8.63
2023-01-04T11:25:37.342Z,8.71
2023-01-04T11:28:18.665Z,8.90
2023-01-04T11:31:00.280Z,8.90
2023-01-04T11:33:30.416Z,8.90
2023-01-04T11:36:01.441Z,8.88
2023-01-04T11:38:31.530Z,9.03
2023-01-04T11:41:10.236Z,9.05
2023-01-04T11:43:41.654Z,9.16
2023-01-04T11:46:29.428Z,9.16
2023-01-04T11:48:58.107Z,9.16
2023-01-04T11:51:37.462Z,9.12
2023-01-04T11:54:08.491Z,8.97
2023-01-04T11:56:37.600Z,8.97
2023-01-04T11:59:17.739Z,9.01
2023-01-04T12:01:52.983Z,9.11
2023-01-04T12:04:24.034Z,9.18
2023-01-04T12:06:54.415Z,9.26
2023-01-04T12:09:22.770Z,9.25
2023-01-04T12:11:53.027Z,9.30
2023-01-04T12:14:25.277Z,9.33
2023-01-04T12:16:58.032Z,9.31
2023-01-04T12:19:26.108Z,9.44
2023-01-04T12:21:57.241Z,9.31
2023-01-04T12:24:28.536Z,9.31
2023-01-04T12:26:56.753Z,9.38
2023-01-04T12:29:43.585Z,9.32
2023-01-04T12:32:41.142Z,9.40
2023-01-04T12:36:01.447Z,9.58
2023-01-04T12:39:19.804Z,9.71
2023-01-04T12:42:26.491Z,9.53
2023-01-04T12:45:22.510Z,9.56
2023-01-04T12:48:12.470Z,9.40
2023-01-04T12:51:31.628Z,9.39
2023-01-04T12:54:06.450Z,9.36
2023-01-04T12:57:11.608Z,9.32
2023-01-04T12:59:41.038Z,9.39
2023-01-04T13:02:22.816Z,9.30
2023-01-04T13:05:24.196Z,9.32
2023-01-04T13:07:48.143Z,9.27
2023-01-04T13:10:34.747Z,9.24
2023-01-04T13:13:55.033Z,9.23
2023-01-04T13:16:30.534Z,9.30
2023-01-04T13:19:03.361Z,9.26
2023-01-04T13:21:34.336Z,9.34
2023-01-04T13:24:06.564Z,9.43
2023-01-04T13:26:43.952Z,9.42
2023-01-04T13:29:18.797Z,9.40
2023-01-04T13:31:56.396Z,9.45
2023-01-04T13:34:29.051Z,9.48
2023-01-04T13:37:00.551Z,9.61
2023-01-04T13:39:29.331Z,9.65
2023-01-04T13:41:58.622Z,9.67
2023-01-04T13:45:18.453Z,9.78
2023-01-04T13:47:44.269Z,9.89
2023-01-04T13:50:28.862Z,9.94
2023-01-04T13:53:06.779Z,9.87
2023-01-04T13:55:37.391Z,9.86
2023-01-04T13:58:08.455Z,9.90
2023-01-04T14:00:45.407Z,9.77
2023-01-04T14:03:28.207Z,9.83
2023-01-04T14:06:13.590Z,9.93
2023-01-04T14:08:47.272Z,9.94
2023-01-04T14:11:40.884Z,9.90
2023-01-04T14:14:30.486Z,10.05
2023-01-04T14:17:24.692Z,10.03
2023-01-04T14:19:54.940Z,10.05
2023-01-04T14:22:39.977Z,9.98
2023-01-04T14:25:37.508Z,9.98
2023-01-04T14:28:49.639Z,9.98
2023-01-04T14:31:33.345Z,10.01
2023-01-04T14:34:10.336Z,9.99
2023-01-04T14:36:43.582Z,10.11
2023-01-04T14:39:34.037Z,10.04
2023-01-04T14:42:02.311Z,10.05
2023-01-04T14:44:33.567Z,10.09
2023-01-04T14:47:15.140Z,10.11
2023-01-04T14:49:43.035Z,9.96
2023-01-04T14:52:24.762Z,10.03
2023-01-04T14:54:53.609Z,10.05
2023-01-04T14:57:24.253Z,10.09
2023-01-04T15:00:16.890Z,10.01
2023-01-04T15:02:52.703Z,10.08
2023-01-04T15:05:23.313Z,10.10
2023-01-04T15:07:51.479Z,10.06
2023-01-04T15:10:24.420Z,10.09
2023-01-04T15:12:52.131Z,10.15
2023-01-04T15:15:20.297Z,10.09
2023-01-04T15:17:48.518Z,10.10
2023-01-04T15:20:16.378Z,10.19
2023-01-04T15:22:45.102Z,10.14
2023-01-04T15:25:12.925Z,10.18
2023-01-04T15:27:48.558Z,10.19
2023-01-04T15:30:26.601Z,10.13
2023-01-04T15:32:55.634Z,10.17
2023-01-04T15:35:23.414Z,10.23
2023-01-04T15:38:18.040Z,10.27
2023-01-04T15:40:50.203Z,10.39
2023-01-04T15:43:18.301Z,10.36
2023-01-04T15:45:46.778Z,10.29
2023-01-04T15:48:14.381Z,10.31
2023-01-04T15:50:47.280Z,10.35
2023-01-04T15:53:17.401Z,10.36
2023-01-04T15:55:45.749Z,10.40
2023-01-04T15:58:16.170Z,10.40
2023-01-04T16:00:48.064Z,10.34
2023-01-04T16:03:18.323Z,10.32
2023-01-04T16:05:46.124Z,10.21
2023-01-04T16:08:29.224Z,10.33
2023-01-04T16:10:57.173Z,10.22
2023-01-04T16:13:24.793Z,10.29
2023-01-04T16:15:53.779Z,10.19
2023-01-04T16:18:23.089Z,10.16
2023-01-04T16:20:52.928Z,10.28
2023-01-04T16:23:28.266Z,10.29
2023-01-04T16:26:14.830Z,10.21
2023-01-04T16:28:42.746Z,10.19
2023-01-04T16:31:11.732Z,10.14
2023-01-04T16:33:41.913Z,10.23
2023-01-04T16:36:13.479Z,10.28
2023-01-04T16:38:48.231Z,10.20
2023-01-04T16:41:24.877Z,10.18
2023-01-04T16:44:00.130Z,10.18
2023-01-04T16:46:31.391Z,10.26
2023-01-04T16:49:03.247Z,10.28
2023-01-04T16:51:36.402Z,10.25
2023-01-04T16:54:08.659Z,10.31
2023-01-04T16:56:37.852Z,10.30
2023-01-04T16:59:08.180Z,10.32
2023-01-04T17:01:48.836Z,10.31
2023-01-04T17:04:24.653Z,10.30
2023-01-04T17:06:55.236Z,10.33
2023-01-04T17:09:23.519Z,10.32
2023-01-04T17:12:45.039Z,10.39
2023-01-04T17:15:15.137Z,10.46
2023-01-04T17:17:47.698Z,10.46
2023-01-04T17:20:19.191Z,10.40
2023-01-04T17:22:47.377Z,10.43
2023-01-04T17:25:16.144Z,10.44
2023-01-04T17:27:44.528Z,10.32
2023-01-04T17:30:13.860Z,10.34
2023-01-04T17:32:51.740Z,10.33
2023-01-04T17:35:20.775Z,10.44
2023-01-04T17:37:51.254Z,10.50
2023-01-04T17:40:23.323Z,10.45
2023-01-04T17:42:51.690Z,10.38
2023-01-04T17:45:21.511Z,10.33
2023-01-04T17:47:57.589Z,10.34
2023-01-04T17:50:25.708Z,10.34
2023-01-04T17:53:01.067Z,10.30
2023-01-04T17:55:32.497Z,10.24
2023-01-04T17:58:03.372Z,10.20
2023-01-04T18:00:51.484Z,10.22
2023-01-04T18:03:25.186Z,10.25
2023-01-04T18:06:24.762Z,10.28
2023-01-04T18:08:55.046Z,10.33
2023-01-04T18:11:24.143Z,10.22
2023-01-04T18:14:00.234Z,10.28
2023-01-04T18:16:31.992Z,10.19
2023-01-04T18:19:04.214Z,10.29
2023-01-04T18:21:33.821Z,10.31
2023-01-04T18:24:35.360Z,10.25
2023-01-04T18:27:20.960Z,10.32
2023-01-04T18:29:50.777Z,10.50
2023-01-04T18:32:21.730Z,10.42
2023-01-04T18:35:11.466Z,10.37
2023-01-04T18:37:39.362Z,10.34
2023-01-04T18:40:11.475Z,10.30
2023-01-04T18:42:43.710Z,10.24
2023-01-04T18:45:13.731Z,10.35
2023-01-04T18:50:35.422Z,10.18
2023-01-04T18:53:09.960Z,10.20
2023-01-04T18:55:42.410Z,10.03
2023-01-04T18:58:23.315Z,10.05
2023-01-04T19:01:03.014Z,10.06
2023-01-04T19:03:32.108Z,10.11
2023-01-04T19:06:10.272Z,10.05
2023-01-04T19:08:51.739Z,10.09
2023-01-04T19:11:26.699Z,10.02
2023-01-04T19:13:59.079Z,10.05
2023-01-04T19:16:55.109Z,9.97
2023-01-04T19:19:27.280Z,9.97
2023-01-04T19:21:56.997Z,10.00
2023-01-04T19:24:24.599Z,10.11
2023-01-04T19:27:03.558Z,10.10
2023-01-04T19:30:02.486Z,10.13
2023-01-04T19:32:33.880Z,10.11
2023-01-04T19:35:03.841Z,10.25
2023-01-04T19:37:44.204Z,10.25
2023-01-04T19:40:13.084Z,10.35
2023-01-04T19:42:45.165Z,10.28
2023-01-04T19:45:14.313Z,10.12
2023-01-04T19:47:45.675Z,10.24
2023-01-04T19:50:13.882Z,10.24
2023-01-04T19:52:43.847Z,10.17
2023-01-04T19:55:16.214Z,10.31
2023-01-04T19:57:44.129Z,10.36
2023-01-04T20:00:15.231Z,10.29
2023-01-04T20:02:45.316Z,10.27
2023-01-04T20:05:17.088Z,10.26
2023-01-04T20:07:49.367Z,10.30
2023-01-04T20:10:29.919Z,10.26
2023-01-04T20:13:24.612Z,10.24
2023-01-04T20:15:55.907Z,10.22
2023-01-04T20:18:24.637Z,10.19
2023-01-04T20:20:55.293Z,10.21
2023-01-04T20:23:28.341Z,10.08
2023-01-04T20:25:57.025Z,10.00
2023-01-04T20:28:31.174Z,10.06
2023-01-04T20:31:03.158Z,10.01
2023-01-04T20:33:31.611Z,10.04
2023-01-04T20:36:00.212Z,10.06
2023-01-04T20:38:30.810Z,10.13
2023-01-04T20:41:04.892Z,10.12
2023-01-04T20:43:34.566Z,10.10
2023-01-04T20:46:12.350Z,10.20
2023-01-04T20:48:42.562Z,10.13
2023-01-04T20:51:14.458Z,10.23
2023-01-04T20:53:45.079Z,10.24
2023-01-04T20:56:18.096Z,10.23
2023-01-04T20:58:46.729Z,10.19
2023-01-04T21:01:33.007Z,10.30
2023-01-04T21:04:03.542Z,10.33
2023-01-04T21:06:37.186Z,10.30
2023-01-04T21:09:17.854Z,10.32
2023-01-04T21:11:45.642Z,10.36
2023-01-04T21:14:13.433Z,10.40
2023-01-04T21:16:42.915Z,10.39
2023-01-04T21:19:11.015Z,10.42
2023-01-04T21:21:39.386Z,10.35
2023-01-04T21:24:10.128Z,10.45
2023-01-04T21:26:37.682Z,10.37
2023-01-04T21:29:05.281Z,10.34
2023-01-04T21:31:32.974Z,10.35
2023-01-04T21:34:00.632Z,10.41
2023-01-04T21:36:29.381Z,10.42
2023-01-04T21:39:01.739Z,10.41
2023-01-04T21:41:33.756Z,10.47
2023-01-04T21:44:02.494Z,10.45
2023-01-04T21:46:44.288Z,10.40
2023-01-04T21:49:16.173Z,10.39
2023-01-04T21:51:43.696Z,10.42
2023-01-04T21:54:14.428Z,10.55
2023-01-04T21:56:48.175Z,10.49
2023-01-04T21:59:16.287Z,10.61
2023-01-04T22:01:45.021Z,10.48
2023-01-04T22:04:12.854Z,10.56
2023-01-04T22:06:44.092Z,10.52
2023-01-04T22:09:17.485Z,10.50
2023-01-04T22:11:53.375Z,10.64
2023-01-04T22:14:26.219Z,10.62
2023-01-04T22:16:53.896Z,10.64
2023-01-04T22:19:22.808Z,10.61
2023-01-04T22:21:54.737Z,10.52
2023-01-04T22:24:24.479Z,10.53
2023-01-04T22:27:00.673Z,10.60
2023-01-04T22:29:29.903Z,10.55
2023-01-04T22:32:03.387Z,10.50
2023-01-04T22:34:31.176Z,10.59
2023-01-04T22:36:58.770Z,10.54
2023-01-04T22:39:26.981Z,10.51
2023-01-04T22:41:56.595Z,10.53
2023-01-04T22:44:26.720Z,10.60
2023-01-04T22:46:54.421Z,10.65
2023-01-04T22:49:22.409Z,10.57
2023-01-04T22:51:56.742Z,10.65
2023-01-04T22:54:26.688Z,10.64
2023-01-04T22:56:55.687Z,10.58
2023-01-04T22:59:23.438Z,10.58
2023-01-04T23:01:52.836Z,10.59
2023-01-04T23:04:21.780Z,10.59
2023-01-04T23:06:49.386Z,10.58
2023-01-04T23:09:20.748Z,10.63
2023-01-04T23:11:51.023Z,10.57
2023-01-04T23:14:22.781Z,10.67
2023-01-04T23:16:51.664Z,10.66
2023-01-04T23:19:19.319Z,10.68
2023-01-04T23:21:54.873Z,10.71
2023-01-04T23:24:40.338Z,10.77
2023-01-04T23:27:08.126Z,10.73
2023-01-04T23:29:37.423Z,10.69
2023-01-04T23:32:05.564Z,10.69
2023-01-04T23:34:34.093Z,10.85
2023-01-04T23:37:09.805Z,10.86
2023-01-04T23:39:37.475Z,10.88
2023-01-04T23:42:05.271Z,10.95
2023-01-04T23:44:33.591Z,10.97
2023-01-04T23:49:34.639Z,10.97
2023-01-04T23:52:05.642Z,10.87
2023-01-04T23:54:37.213Z,10.83
2023-01-04T23:57:06.443Z,10.89
2023-01-04T23:59:35.186Z,10.93
